This is the latest recevied weather packets stored in our database for station/object SR2WXM. If no packets are shown the sender has not sent any weather packets the latest 10 day(s).
| Time | Temp. | Humidity | Pressure | Rain* | Wind** | Luminosity | Snow |
|---|---|---|---|---|---|---|---|
| 1777875303 | 18.89° C | 49% | 1009.8 hPa | 0 mm | - | - | - |
| 1777874402 | 16.67° C | 51% | 1009.4 hPa | 0 mm | - | - | - |
| 1777873503 | 17.78° C | 50% | 1009.4 hPa | 0 mm | - | - | - |
| 1777872602 | 15.56° C | 54% | 1009.4 hPa | 0 mm | - | - | - |
| 1777871703 | 15° C | 56% | 1009.4 hPa | 0 mm | - | - | - |
| 1777870802 | 13.89° C | 57% | 1009.4 hPa | 0 mm | - | - | - |
| 1777869902 | 13.89° C | 58% | 1009.4 hPa | 0 mm | - | - | - |
| 1777869003 | 13.89° C | 58% | 1009.1 hPa | 0 mm | - | - | - |
| 1777868102 | 13.89° C | 58% | 1009.1 hPa | 0 mm | - | - | - |
| 1777867202 | 13.89° C | 60% | 1009.1 hPa | 0 mm | - | - | - |
| 1777866302 | 13.89° C | 59% | 1009.1 hPa | 0 mm | - | - | - |
| 1777865403 | 12.78° C | 61% | 1009.1 hPa | 0 mm | - | - | - |
| 1777864503 | 12.78° C | 61% | 1009.1 hPa | 0 mm | - | - | - |
| 1777863602 | 12.78° C | 60% | 1009.4 hPa | 0 mm | - | - | - |
| 1777862702 | 12.78° C | 61% | 1009.1 hPa | 0 mm | - | - | - |
| 1777861803 | 13.89° C | 59% | 1009.4 hPa | 0 mm | - | - | - |
| 1777860902 | 13.89° C | 58% | 1009.1 hPa | 0 mm | - | - | - |
| 1777860003 | 13.89° C | 58% | 1009.1 hPa | 0 mm | - | - | - |
| 1777859102 | 13.89° C | 57% | 1009.1 hPa | 0 mm | - | - | - |
| 1777858203 | 13.89° C | 56% | 1009.4 hPa | 0 mm | - | - | - |
| 1777857303 | 13.89° C | 56% | 1009.4 hPa | 0 mm | - | - | - |
| 1777856402 | 13.89° C | 55% | 1009.4 hPa | 0 mm | - | - | - |
| 1777855503 | 13.89° C | 55% | 1009.4 hPa | 0 mm | - | - | - |
| 1777854603 | 13.89° C | 54% | 1009.4 hPa | 0 mm | - | - | - |
| 1777853703 | 15° C | 53% | 1009.1 hPa | 0 mm | - | - | - |
* Rain latest hour (hover to see other rain measurements)
** Current wind speed in m/s (hover to see current wind gust speed)